Time;durP1;ratioP1;P1;durP2;ratioP2;P2;SDS_P1;SDS_P2;PMS_P1;PMS_P2;Temp;Humidity;BMP_temperature;BMP_pressure;BME280_temperature;BME280_humidity;BME280_pressure;Samples;Min_cycle;Max_cycle;Signal;HPM_P1;HPM_P2
2023/04/27 00:01:34;;;;;;;2.10;1.90;;;19.20;51.70;;;;;;5005849;28;20185;-70
2023/04/27 00:04:03;;;;;;;2.47;2.28;;;19.20;51.70;;;;;;5005678;28;20184;-70
2023/04/27 00:06:29;;;;;;;2.60;2.10;;;19.20;51.80;;;;;;5005757;28;20286;-70
2023/04/27 00:08:55;;;;;;;2.15;1.95;;;19.20;51.80;;;;;;5011176;28;20199;-70
2023/04/27 00:11:21;;;;;;;2.47;2.08;;;19.20;51.70;;;;;;5009445;28;20237;-70
2023/04/27 00:13:47;;;;;;;2.90;2.10;;;19.20;51.70;;;;;;4997528;28;20565;-70
2023/04/27 00:16:13;;;;;;;2.25;1.85;;;19.20;51.70;;;;;;5007217;28;20224;-70
2023/04/27 00:18:39;;;;;;;2.47;2.03;;;19.20;51.80;;;;;;5024839;28;20210;-70
2023/04/27 00:21:05;;;;;;;2.78;2.33;;;19.20;51.70;;;;;;5017434;28;20279;-70
2023/04/27 00:23:30;;;;;;;3.08;2.05;;;19.20;51.70;;;;;;4992742;28;20253;-70
2023/04/27 00:25:56;;;;;;;2.30;2.10;;;19.20;51.70;;;;;;5005584;28;20303;-69
2023/04/27 00:28:22;;;;;;;2.25;2.05;;;19.10;51.60;;;;;;5013353;28;20275;-70
2023/04/27 00:30:48;;;;;;;2.22;1.90;;;19.20;51.70;;;;;;5013181;28;20195;-70
2023/04/27 00:33:15;;;;;;;2.05;1.83;;;19.20;51.70;;;;;;5011373;28;20192;-70
2023/04/27 00:35:41;;;;;;;2.13;2.00;;;19.20;52.30;;;;;;4988629;28;20238;-71
2023/04/27 00:38:07;;;;;;;2.38;2.17;;;19.20;51.70;;;;;;5009803;28;20197;-70
2023/04/27 00:40:33;;;;;;;2.10;1.65;;;19.10;51.60;;;;;;5025292;28;20647;-70
2023/04/27 00:42:58;;;;;;;2.22;1.70;;;19.20;51.70;;;;;;5013355;28;20187;-70
2023/04/27 00:45:25;;;;;;;1.77;1.67;;;19.20;51.70;;;;;;5021305;28;20184;-70
2023/04/27 00:47:50;;;;;;;1.90;1.80;;;19.20;51.80;;;;;;5007862;28;20199;-70
2023/04/27 00:50:27;;;;;;;1.80;1.70;;;19.20;52.30;;;;;;5010971;28;20198;-70
2023/04/27 00:52:54;;;;;;;2.63;1.98;;;19.20;51.80;;;;;;5012616;28;20253;-70
2023/04/27 00:55:20;;;;;;;2.08;1.77;;;19.20;51.70;;;;;;5012683;28;20187;-70
2023/04/27 00:57:45;;;;;;;2.15;1.98;;;19.10;51.60;;;;;;4995679;28;20231;-71
2023/04/27 01:00:12;;;;;;;2.05;1.95;;;19.20;51.70;;;;;;5012379;28;20231;-70
2023/04/27 01:02:38;;;;;;;1.98;1.70;;;19.10;51.60;;;;;;5013130;28;20184;-70
2023/04/27 01:05:05;;;;;;;2.00;1.90;;;19.10;51.60;;;;;;5004426;28;20184;-70
2023/04/27 01:07:31;;;;;;;1.90;1.80;;;19.10;51.60;;;;;;4996258;28;20230;-70
2023/04/27 01:09:57;;;;;;;2.72;2.25;;;19.20;51.70;;;;;;4989094;28;20188;-70
2023/04/27 01:12:23;;;;;;;2.03;1.80;;;19.10;51.70;;;;;;5014061;28;20188;-70
2023/04/27 01:14:49;;;;;;;2.72;1.98;;;19.20;51.70;;;;;;4998439;28;20188;-70
2023/04/27 01:17:17;;;;;;;1.90;1.70;;;19.10;51.60;;;;;;5012294;28;20690;-69
2023/04/27 01:19:43;;;;;;;1.73;1.63;;;19.10;51.60;;;;;;5028908;28;20215;-70
2023/04/27 01:22:09;;;;;;;2.28;2.08;;;19.10;51.60;;;;;;5028139;28;20188;-70
2023/04/27 01:24:35;;;;;;;1.70;1.60;;;19.10;51.60;;;;;;4995924;28;20214;-70
2023/04/27 01:27:04;;;;;;;1.70;1.60;;;19.20;51.80;;;;;;5012699;28;20204;-70
2023/04/27 01:29:29;;;;;;;2.15;1.70;;;19.10;51.60;;;;;;4996220;28;20713;-69
2023/04/27 01:31:55;;;;;;;1.70;1.60;;;19.10;51.70;;;;;;4995808;28;20198;-69
2023/04/27 01:34:22;;;;;;;2.20;2.00;;;19.10;51.60;;;;;;5012188;28;20188;-70
2023/04/27 01:36:47;;;;;;;2.00;1.77;;;19.10;51.60;;;;;;5011146;28;20276;-70
2023/04/27 01:39:13;;;;;;;2.13;1.77;;;19.20;51.70;;;;;;4988601;28;20235;-70
2023/04/27 01:41:40;;;;;;;2.20;2.00;;;19.10;51.60;;;;;;5011974;28;20184;-70
2023/04/27 01:44:06;;;;;;;1.60;1.50;;;19.10;51.60;;;;;;5004015;28;20214;-70
2023/04/27 01:46:32;;;;;;;1.80;1.70;;;19.10;51.60;;;;;;5009496;28;20567;-70
2023/04/27 01:48:57;;;;;;;1.73;1.63;;;19.10;51.60;;;;;;4993232;28;20195;-71
2023/04/27 01:51:23;;;;;;;1.33;1.23;;;19.10;51.70;;;;;;4992149;28;20184;-70
2023/04/27 01:53:49;;;;;;;1.65;1.55;;;19.10;51.70;;;;;;5001049;28;20196;-70
2023/04/27 01:56:15;;;;;;;1.65;1.52;;;19.10;51.60;;;;;;5011731;28;20191;-70
2023/04/27 01:58:41;;;;;;;1.67;1.58;;;19.10;51.60;;;;;;5008349;28;20562;-70
2023/04/27 02:01:07;;;;;;;1.75;1.65;;;19.10;51.60;;;;;;4995383;28;20176;-70
2023/04/27 02:03:33;;;;;;;1.98;1.70;;;19.10;51.60;;;;;;4995511;28;20192;-70
2023/04/27 02:05:58;;;;;;;1.98;1.77;;;19.10;51.70;;;;;;5012973;28;20215;-69
2023/04/27 02:08:24;;;;;;;1.67;1.58;;;19.10;51.70;;;;;;5011718;28;20196;-70
2023/04/27 02:10:50;;;;;;;1.67;1.58;;;19.10;51.60;;;;;;5017254;28;20283;-70
2023/04/27 02:13:16;;;;;;;2.03;1.85;;;19.10;51.70;;;;;;4995244;28;20242;-71
2023/04/27 02:15:42;;;;;;;1.98;1.50;;;19.10;51.60;;;;;;5003191;28;20275;-70
2023/04/27 02:18:08;;;;;;;2.40;1.77;;;19.10;51.60;;;;;;5011039;28;20191;-70
2023/04/27 02:20:33;;;;;;;2.25;1.95;;;19.10;51.60;;;;;;4994931;28;20538;-70
2023/04/27 02:23:01;;;;;;;1.90;1.80;;;19.10;51.70;;;;;;5011411;28;20188;-70
2023/04/27 02:25:27;;;;;;;1.60;1.50;;;19.10;51.60;;;;;;5011571;28;20299;-70
2023/04/27 02:27:52;;;;;;;1.83;1.73;;;19.10;51.70;;;;;;5010182;28;20335;-70
2023/04/27 02:30:18;;;;;;;1.50;1.40;;;19.10;51.60;;;;;;5001252;28;20200;-70
2023/04/27 02:32:45;;;;;;;1.83;1.73;;;19.10;51.60;;;;;;5016206;28;20196;-71
2023/04/27 02:35:11;;;;;;;1.70;1.60;;;19.10;51.60;;;;;;5011212;28;20195;-70
2023/04/27 02:37:36;;;;;;;1.50;1.40;;;19.10;51.70;;;;;;5011273;28;20223;-70
2023/04/27 02:40:05;;;;;;;1.58;1.45;;;19.10;51.60;;;;;;5018466;28;20226;-71
2023/04/27 02:42:32;;;;;;;1.50;1.40;;;19.10;51.60;;;;;;5019268;28;20187;-70
2023/04/27 02:44:57;;;;;;;2.28;1.60;;;19.10;51.60;;;;;;5027359;28;20184;-70
2023/04/27 02:47:23;;;;;;;1.60;1.50;;;19.20;51.70;;;;;;5009029;28;20211;-70
2023/04/27 02:49:49;;;;;;;2.35;1.65;;;19.10;51.60;;;;;;5019464;28;20192;-70
2023/04/27 02:52:15;;;;;;;1.88;1.75;;;19.10;51.60;;;;;;5027449;28;20210;-70
2023/04/27 02:54:40;;;;;;;1.60;1.50;;;19.10;51.70;;;;;;5027581;28;20194;-70
2023/04/27 02:57:06;;;;;;;1.70;1.58;;;19.10;51.60;;;;;;5009085;28;20200;-70
2023/04/27 02:59:32;;;;;;;1.77;1.67;;;19.10;51.60;;;;;;5025518;28;20211;-70
2023/04/27 03:01:58;;;;;;;1.50;1.40;;;19.10;51.60;;;;;;5022481;28;20195;-70
2023/04/27 03:04:23;;;;;;;2.70;1.50;;;19.10;51.60;;;;;;5001162;28;20214;-70
2023/04/27 03:06:49;;;;;;;3.40;1.73;;;19.10;51.60;;;;;;5011022;28;20239;-70
2023/04/27 03:09:15;;;;;;;1.67;1.58;;;19.10;51.60;;;;;;5027672;28;20191;-70
2023/04/27 03:11:41;;;;;;;1.58;1.48;;;19.10;51.60;;;;;;4987316;28;20185;-70
2023/04/27 03:14:07;;;;;;;1.63;1.52;;;19.10;51.60;;;;;;5010195;28;20196;-70
2023/04/27 03:16:34;;;;;;;1.50;1.40;;;19.10;51.60;;;;;;5005585;28;20574;-70
2023/04/27 03:19:00;;;;;;;1.55;1.45;;;19.10;52.30;;;;;;4994585;28;20220;-70
2023/04/27 03:21:27;;;;;;;2.10;1.63;;;19.10;51.60;;;;;;5001625;28;20648;-70
2023/04/27 03:23:53;;;;;;;1.80;1.60;;;19.10;51.60;;;;;;5007920;28;20203;-70
2023/04/27 03:26:19;;;;;;;1.73;1.60;;;19.10;51.70;;;;;;4982893;28;20303;-70
2023/04/27 03:28:45;;;;;;;1.58;1.48;;;19.10;51.60;;;;;;5015664;28;20188;-70
2023/04/27 03:31:13;;;;;;;1.95;1.70;;;19.10;51.60;;;;;;5003575;28;20200;-70
2023/04/27 03:33:40;;;;;;;1.80;1.65;;;19.10;51.70;;;;;;5009876;28;20188;-70
2023/04/27 03:36:09;;;;;;;2.45;1.70;;;19.10;51.60;;;;;;4987479;28;20282;-70
2023/04/27 03:38:35;;;;;;;1.65;1.55;;;19.10;51.60;;;;;;5009383;28;20207;-70
2023/04/27 03:41:01;;;;;;;1.83;1.65;;;19.10;51.70;;;;;;4994697;28;20275;-70
2023/04/27 03:43:27;;;;;;;1.63;1.40;;;19.10;51.60;;;;;;5007814;28;20270;-70
2023/04/27 03:45:53;;;;;;;2.17;1.75;;;19.10;51.70;;;;;;4989922;28;20219;-70
2023/04/27 03:48:19;;;;;;;1.65;1.55;;;19.10;51.70;;;;;;5025289;28;20184;-70
2023/04/27 03:50:46;;;;;;;1.67;1.58;;;19.10;51.80;;;;;;5031295;28;20211;-70
2023/04/27 03:53:12;;;;;;;1.67;1.58;;;19.10;51.70;;;;;;5018867;28;20191;-69
2023/04/27 03:55:40;;;;;;;2.78;1.65;;;19.10;51.70;;;;;;5005172;28;20199;-70
2023/04/27 03:58:09;;;;;;;1.48;1.38;;;19.10;51.80;;;;;;5006526;28;20195;-70
2023/04/27 04:00:36;;;;;;;1.50;1.40;;;19.10;51.70;;;;;;5005805;28;20287;-70
2023/04/27 04:03:06;;;;;;;1.52;1.42;;;19.10;51.70;;;;;;4999284;28;20188;-70
2023/04/27 04:05:32;;;;;;;1.70;1.50;;;19.10;51.80;;;;;;5013810;28;20196;-70
2023/04/27 04:07:58;;;;;;;1.80;1.60;;;19.10;51.70;;;;;;4996236;28;20234;-70
2023/04/27 04:10:25;;;;;;;1.60;1.50;;;19.10;51.70;;;;;;5007406;28;20195;-70
2023/04/27 04:12:51;;;;;;;1.70;1.60;;;19.10;51.70;;;;;;5016805;28;20192;-70
2023/04/27 04:15:18;;;;;;;1.50;1.40;;;19.10;51.70;;;;;;5013679;28;20191;-70
2023/04/27 04:17:46;;;;;;;1.80;1.70;;;19.10;51.70;;;;;;5005335;28;20374;-71
2023/04/27 04:20:12;;;;;;;1.73;1.58;;;19.10;51.70;;;;;;5021451;28;20208;-71
2023/04/27 04:22:38;;;;;;;1.60;1.50;;;19.10;51.70;;;;;;5008266;28;20195;-70
2023/04/27 04:25:06;;;;;;;1.60;1.50;;;19.10;51.70;;;;;;5011913;28;20670;-71
2023/04/27 04:27:32;;;;;;;1.50;1.40;;;19.10;51.70;;;;;;4996941;28;20210;-71
2023/04/27 04:29:59;;;;;;;1.77;1.50;;;19.10;51.70;;;;;;5013361;28;20270;-71
2023/04/27 04:32:28;;;;;;;1.63;1.50;;;19.10;51.80;;;;;;5008705;28;20680;-71
2023/04/27 04:34:54;;;;;;;1.83;1.67;;;19.10;51.80;;;;;;4985283;28;20219;-71
2023/04/27 04:37:21;;;;;;;2.05;1.55;;;19.10;51.80;;;;;;5002509;28;20213;-71
2023/04/27 04:39:47;;;;;;;1.60;1.50;;;19.10;51.80;;;;;;5007564;28;20218;-71
2023/04/27 04:42:13;;;;;;;1.80;1.70;;;19.10;51.80;;;;;;4997383;28;20185;-71
2023/04/27 04:44:39;;;;;;;1.50;1.40;;;19.10;51.80;;;;;;4990344;28;20193;-71
2023/04/27 04:47:05;;;;;;;1.50;1.40;;;19.10;51.80;;;;;;4995182;28;20204;-69
2023/04/27 04:49:31;;;;;;;1.60;1.50;;;19.10;51.80;;;;;;5029330;28;20195;-71
2023/04/27 04:51:57;;;;;;;1.73;1.63;;;19.10;51.80;;;;;;5013018;28;20199;-69
2023/04/27 04:54:23;;;;;;;1.70;1.45;;;19.10;51.80;;;;;;5028596;28;20188;-71
2023/04/27 04:56:48;;;;;;;1.58;1.48;;;19.10;51.80;;;;;;5009460;28;20216;-71
2023/04/27 04:59:15;;;;;;;2.63;1.65;;;19.10;51.80;;;;;;5029056;28;20208;-71
2023/04/27 05:01:41;;;;;;;1.70;1.60;;;19.10;51.80;;;;;;5012958;28;20565;-71
2023/04/27 05:04:06;;;;;;;1.70;1.60;;;19.10;51.80;;;;;;4996265;28;20207;-70
2023/04/27 05:06:32;;;;;;;1.55;1.45;;;19.10;51.80;;;;;;5004486;28;20714;-70
2023/04/27 05:08:58;;;;;;;1.50;1.40;;;19.10;51.80;;;;;;5012214;28;20223;-70
2023/04/27 05:11:24;;;;;;;2.15;1.95;;;19.10;51.80;;;;;;5000528;28;20204;-71
2023/04/27 05:13:49;;;;;;;1.60;1.50;;;19.10;51.80;;;;;;5008449;28;20196;-70
2023/04/27 05:16:15;;;;;;;1.40;1.30;;;19.10;51.80;;;;;;5001533;28;20273;-71
2023/04/27 05:18:41;;;;;;;1.65;1.55;;;19.10;51.80;;;;;;5018694;28;20215;-72
2023/04/27 05:21:19;;;;;;;1.60;1.50;;;19.20;51.90;;;;;;5005957;28;20192;-71
2023/04/27 05:23:45;;;;;;;2.15;1.48;;;19.20;51.90;;;;;;5004292;28;20242;-72
2023/04/27 05:26:17;;;;;;;2.17;1.50;;;19.20;51.90;;;;;;5009306;28;20216;-71
2023/04/27 05:28:44;;;;;;;3.15;1.85;;;19.10;51.80;;;;;;4992284;28;20194;-70
2023/04/27 05:31:09;;;;;;;1.60;1.50;;;19.20;51.90;;;;;;5011243;28;20184;-69
2023/04/27 05:33:35;;;;;;;1.98;1.75;;;19.20;52.00;;;;;;5007786;28;20264;-70
2023/04/27 05:36:01;;;;;;;1.80;1.70;;;19.20;52.00;;;;;;5027341;28;20216;-70
2023/04/27 05:38:27;;;;;;;1.33;1.23;;;19.20;51.90;;;;;;5004758;28;20223;-71
2023/04/27 05:40:57;;;;;;;2.20;1.95;;;19.20;51.90;;;;;;5011048;28;20192;-70
2023/04/27 05:43:24;;;;;;;1.70;1.60;;;19.20;51.90;;;;;;5020859;28;20210;-71
2023/04/27 05:45:50;;;;;;;1.77;1.65;;;19.20;51.90;;;;;;5011498;28;20270;-72
2023/04/27 05:48:16;;;;;;;1.52;1.42;;;19.20;52.50;;;;;;5030772;28;20191;-71
2023/04/27 05:50:42;;;;;;;1.92;1.70;;;19.20;51.90;;;;;;5025958;28;20188;-70
2023/04/27 05:53:08;;;;;;;2.08;1.52;;;19.20;51.90;;;;;;5011505;28;20184;-69
2023/04/27 05:55:34;;;;;;;1.58;1.48;;;19.20;51.90;;;;;;5012684;28;20188;-71
2023/04/27 05:58:00;;;;;;;2.80;1.55;;;19.20;51.80;;;;;;5011117;28;20687;-71
2023/04/27 06:00:27;;;;;;;1.80;1.70;;;19.20;51.90;;;;;;5020530;28;20215;-71
2023/04/27 06:02:53;;;;;;;1.50;1.40;;;19.20;51.90;;;;;;5003306;28;20194;-71
2023/04/27 06:05:20;;;;;;;1.55;1.45;;;19.20;51.80;;;;;;5011230;28;20184;-72
2023/04/27 06:07:46;;;;;;;1.95;1.63;;;19.20;51.90;;;;;;5004407;28;20215;-72
2023/04/27 06:10:12;;;;;;;2.03;1.63;;;19.20;51.80;;;;;;5011310;28;20284;-71
2023/04/27 06:12:38;;;;;;;2.40;1.60;;;19.20;51.80;;;;;;5003517;28;20278;-71
2023/04/27 06:15:08;;;;;;;2.58;1.50;;;19.30;51.90;;;;;;4994499;28;20203;-72
2023/04/27 06:17:38;;;;;;;2.70;2.00;;;19.30;51.90;;;;;;5014363;28;20215;-71
2023/04/27 06:20:05;;;;;;;1.45;1.30;;;19.20;51.90;;;;;;5012344;28;20219;-71
2023/04/27 06:22:32;;;;;;;2.33;1.65;;;19.20;51.80;;;;;;4992830;28;20181;-70
2023/04/27 06:24:58;;;;;;;1.98;1.80;;;19.30;51.90;;;;;;5000781;28;20187;-71
2023/04/27 06:27:24;;;;;;;2.22;1.98;;;19.20;51.80;;;;;;5027467;28;20258;-71
2023/04/27 06:29:50;;;;;;;2.10;1.90;;;19.20;51.80;;;;;;5003993;28;20195;-72
2023/04/27 06:32:16;;;;;;;1.95;1.83;;;19.30;51.90;;;;;;5008715;28;20188;-70
2023/04/27 06:34:42;;;;;;;3.47;1.90;;;19.30;51.90;;;;;;4999452;28;20223;-71
2023/04/27 06:37:08;;;;;;;2.22;2.03;;;19.30;51.80;;;;;;4984273;28;20213;-71
2023/04/27 06:39:34;;;;;;;2.15;1.77;;;19.30;51.80;;;;;;5010935;28;20208;-71
2023/04/27 06:42:00;;;;;;;1.92;1.73;;;19.30;51.80;;;;;;5005565;28;20191;-71
2023/04/27 06:44:26;;;;;;;2.78;1.92;;;19.30;51.80;;;;;;4995235;28;20275;-71
2023/04/27 06:46:52;;;;;;;2.38;1.65;;;19.30;51.80;;;;;;5002783;28;20267;-71
2023/04/27 06:49:17;;;;;;;1.85;1.55;;;19.30;51.80;;;;;;5021742;28;20263;-71
2023/04/27 06:51:45;;;;;;;1.85;1.60;;;19.30;51.80;;;;;;5008331;28;20184;-71
2023/04/27 06:54:11;;;;;;;2.05;1.80;;;19.30;51.80;;;;;;4986465;28;20205;-71
2023/04/27 06:56:37;;;;;;;2.97;1.80;;;19.30;51.80;;;;;;4995311;28;20215;-71
2023/04/27 06:59:02;;;;;;;1.83;1.73;;;19.30;51.80;;;;;;5005138;28;20224;-70
2023/04/27 07:01:28;;;;;;;1.88;1.67;;;19.30;51.80;;;;;;4998538;28;20179;-71
2023/04/27 07:03:54;;;;;;;1.60;1.50;;;19.30;51.80;;;;;;5014810;28;20192;-71
2023/04/27 07:06:21;;;;;;;2.00;1.80;;;19.30;51.80;;;;;;4998142;28;20243;-72
2023/04/27 07:08:46;;;;;;;2.38;1.73;;;19.40;51.80;;;;;;5028055;28;20204;-71
2023/04/27 07:11:12;;;;;;;3.17;2.00;;;19.30;52.00;;;;;;5012807;28;20637;-71
2023/04/27 07:13:38;;;;;;;2.88;1.92;;;19.30;51.70;;;;;;5000137;28;20188;-71
2023/04/27 07:16:04;;;;;;;2.42;1.85;;;19.40;51.80;;;;;;5013828;28;20223;-71
2023/04/27 07:18:30;;;;;;;2.30;2.10;;;19.40;51.80;;;;;;5025238;28;20214;-71
2023/04/27 07:20:56;;;;;;;2.53;1.80;;;19.40;51.90;;;;;;5025559;28;20176;-71
2023/04/27 07:23:23;;;;;;;2.30;1.95;;;19.40;51.90;;;;;;5015042;28;20187;-71
2023/04/27 07:25:49;;;;;;;1.85;1.58;;;19.40;51.80;;;;;;5009743;28;20188;-71
2023/04/27 07:28:15;;;;;;;2.85;1.98;;;19.40;51.80;;;;;;5013046;28;20184;-71
2023/04/27 07:30:41;;;;;;;3.10;2.10;;;19.40;51.80;;;;;;5013334;28;20218;-71
2023/04/27 07:33:08;;;;;;;1.80;1.70;;;19.40;51.80;;;;;;5012846;28;20195;-72
2023/04/27 07:35:35;;;;;;;1.98;1.88;;;19.40;51.70;;;;;;5028392;28;20187;-71
2023/04/27 07:38:01;;;;;;;3.28;2.05;;;19.40;51.70;;;;;;5004999;28;20227;-71
2023/04/27 07:40:28;;;;;;;2.08;1.83;;;19.50;51.80;;;;;;5013178;28;20219;-71
2023/04/27 07:42:54;;;;;;;2.22;1.60;;;19.40;51.70;;;;;;5005828;28;20181;-71
2023/04/27 07:45:22;;;;;;;2.00;1.90;;;19.50;51.80;;;;;;5003087;28;20246;-71
2023/04/27 07:47:48;;;;;;;1.83;1.70;;;19.50;51.70;;;;;;5006426;28;20208;-71
2023/04/27 07:50:15;;;;;;;3.03;1.80;;;19.50;51.70;;;;;;4986482;28;20177;-71
2023/04/27 07:52:41;;;;;;;2.75;1.88;;;19.50;51.80;;;;;;5009441;28;20199;-71
2023/04/27 07:55:07;;;;;;;1.80;1.70;;;19.50;51.70;;;;;;5031580;28;20204;-71
2023/04/27 07:57:33;;;;;;;1.67;1.55;;;19.50;51.80;;;;;;5011800;28;20212;-71
2023/04/27 07:59:59;;;;;;;2.25;1.70;;;19.50;51.80;;;;;;4993249;28;20220;-70
2023/04/27 08:02:30;;;;;;;1.70;1.60;;;19.60;51.80;;;;;;5019225;28;20187;-71
2023/04/27 08:04:56;;;;;;;1.83;1.58;;;19.60;51.80;;;;;;5003579;28;20192;-72
2023/04/27 08:07:22;;;;;;;1.60;1.50;;;19.60;51.80;;;;;;4995469;28;20248;-72
2023/04/27 08:09:51;;;;;;;2.78;1.70;;;19.60;51.80;;;;;;5029063;28;20218;-70
2023/04/27 08:12:18;;;;;;;2.08;1.77;;;19.60;51.80;;;;;;5012382;28;20196;-72
2023/04/27 08:14:44;;;;;;;3.83;1.50;;;19.60;51.80;;;;;;5012099;28;20196;-72
2023/04/27 08:17:10;;;;;;;1.88;1.75;;;19.60;51.90;;;;;;4983378;28;1068715;-72
2023/04/27 08:19:36;;;;;;;2.65;1.98;;;19.70;52.00;;;;;;4994095;28;20216;-70
2023/04/27 08:22:02;;;;;;;2.25;2.05;;;19.70;51.80;;;;;;4993872;28;20231;-70
2023/04/27 08:24:28;;;;;;;2.13;1.92;;;19.70;51.80;;;;;;5032703;28;20183;-71
2023/04/27 08:26:54;;;;;;;2.63;2.08;;;19.70;51.80;;;;;;5011638;28;20208;-71
2023/04/27 08:29:20;;;;;;;2.53;1.98;;;19.70;51.80;;;;;;5012232;28;20218;-71
2023/04/27 08:31:46;;;;;;;2.20;1.60;;;19.70;51.80;;;;;;5013244;28;20192;-71
2023/04/27 08:34:12;;;;;;;2.63;2.00;;;19.70;51.80;;;;;;5004697;28;20191;-71
2023/04/27 08:36:37;;;;;;;3.95;2.13;;;19.70;51.70;;;;;;5013160;28;20211;-71
2023/04/27 08:39:06;;;;;;;2.92;1.92;;;19.80;51.80;;;;;;4996923;28;20212;-71
2023/04/27 08:41:32;;;;;;;2.10;1.90;;;19.80;51.80;;;;;;5005078;28;20188;-71
2023/04/27 08:43:59;;;;;;;3.15;1.90;;;19.80;51.80;;;;;;5013032;28;20192;-72
2023/04/27 08:46:27;;;;;;;2.30;1.77;;;19.80;51.70;;;;;;5011383;28;20204;-71
2023/04/27 08:48:54;;;;;;;2.08;1.88;;;19.80;51.80;;;;;;5009096;28;20195;-72
2023/04/27 08:51:21;;;;;;;1.67;1.58;;;19.80;51.80;;;;;;5012711;28;20188;-71
2023/04/27 08:53:51;;;;;;;2.42;2.10;;;19.80;51.80;;;;;;5010228;28;20194;-71
2023/04/27 08:56:18;;;;;;;2.25;1.88;;;19.80;51.80;;;;;;5020891;28;20215;-71
2023/04/27 08:58:44;;;;;;;3.00;2.00;;;19.80;51.80;;;;;;5029127;28;20215;-72
2023/04/27 09:01:10;;;;;;;2.80;1.65;;;19.80;51.90;;;;;;5012867;28;20188;-72
2023/04/27 09:03:36;;;;;;;2.83;1.80;;;19.80;51.80;;;;;;5020300;28;20181;-71
2023/04/27 09:06:06;;;;;;;1.70;1.60;;;19.80;51.80;;;;;;5008543;28;20231;-71
2023/04/27 09:08:48;;;;;;;2.47;1.85;;;19.80;51.80;;;;;;5004816;28;20199;-71
2023/04/27 09:11:28;;;;;;;2.05;1.70;;;19.80;51.80;;;;;;5028856;28;20199;-72
2023/04/27 09:13:54;;;;;;;2.10;1.77;;;19.80;51.70;;;;;;5012358;28;20199;-69
2023/04/27 09:16:28;;;;;;;2.05;1.85;;;19.80;51.80;;;;;;5011843;28;20216;-71
2023/04/27 09:18:56;;;;;;;2.10;1.90;;;19.80;52.00;;;;;;5001395;28;20227;-71
2023/04/27 09:21:28;;;;;;;4.82;2.00;;;19.90;51.80;;;;;;5010749;28;20275;-72
2023/04/27 09:23:55;;;;;;;1.75;1.63;;;19.80;51.60;;;;;;5015606;28;20647;-71
2023/04/27 09:26:24;;;;;;;2.30;1.67;;;19.80;51.70;;;;;;5038434;28;20680;-71
2023/04/27 09:28:56;;;;;;;2.13;1.73;;;19.80;51.70;;;;;;5028759;28;20192;-72
2023/04/27 09:31:34;;;;;;;17.25;10.38;;;19.90;51.70;;;;;;5012315;28;20192;-71
2023/04/27 09:34:01;;;;;;;13.55;8.75;;;19.90;51.90;;;;;;5005081;28;20226;-71
2023/04/27 09:36:26;;;;;;;27.02;16.35;;;19.90;51.80;;;;;;5018010;28;20223;-70
2023/04/27 09:38:52;;;;;;;37.03;22.75;;;19.90;52.20;;;;;;5006699;28;20212;-71
2023/04/27 09:41:19;;;;;;;23.25;14.70;;;19.90;52.70;;;;;;4981512;28;20239;-70
2023/04/27 09:43:46;;;;;;;23.50;14.55;;;19.90;52.30;;;;;;5011681;28;20614;-70
2023/04/27 09:46:15;;;;;;;26.58;16.52;;;19.90;52.00;;;;;;4995423;28;20200;-71
2023/04/27 09:48:41;;;;;;;25.90;15.85;;;19.90;52.10;;;;;;5024130;28;20181;-72
2023/04/27 09:51:07;;;;;;;24.92;15.82;;;19.90;52.00;;;;;;5009289;28;20235;-71
2023/04/27 09:53:43;;;;;;;21.63;15.50;;;19.90;52.00;;;;;;5003455;28;20184;-71
2023/04/27 09:56:28;;;;;;;28.77;17.38;;;19.80;51.90;;;;;;5011785;28;20264;-71
2023/04/27 09:59:40;;;;;;;28.45;17.88;;;19.90;52.00;;;;;;4981761;28;20287;-71
2023/04/27 10:02:12;;;;;;;34.17;21.48;;;19.90;52.00;;;;;;4999693;28;20191;-72
2023/04/27 10:04:52;;;;;;;28.75;17.77;;;19.90;52.30;;;;;;5011397;28;20203;-73
2023/04/27 10:07:19;;;;;;;31.27;19.58;;;19.90;52.10;;;;;;5027792;28;20265;-72
2023/04/27 10:09:47;;;;;;;33.42;21.33;;;19.90;52.10;;;;;;5011493;28;20272;-72
2023/04/27 10:12:22;;;;;;;31.67;20.08;;;19.90;52.10;;;;;;5011465;28;20279;-72
2023/04/27 10:14:56;;;;;;;30.42;20.23;;;19.90;52.20;;;;;;5026435;28;20195;-72
2023/04/27 10:17:34;;;;;;;30.63;20.90;;;19.90;52.10;;;;;;5003044;28;20223;-71
2023/04/27 10:20:09;;;;;;;31.13;20.45;;;19.90;52.10;;;;;;5011585;28;20219;-71
2023/04/27 10:22:43;;;;;;;31.27;21.27;;;19.90;52.20;;;;;;5011206;28;20179;-72
2023/04/27 10:25:22;;;;;;;36.42;23.15;;;19.90;52.30;;;;;;5027757;28;20202;-72
2023/04/27 10:28:00;;;;;;;31.75;20.23;;;19.90;52.30;;;;;;4987009;28;20302;-71
2023/04/27 10:30:33;;;;;;;33.95;22.98;;;19.90;52.30;;;;;;4986968;28;20210;-71
2023/04/27 10:33:06;;;;;;;32.80;20.55;;;19.90;52.30;;;;;;5027746;28;20202;-71
2023/04/27 10:35:40;;;;;;;33.05;22.00;;;19.90;52.20;;;;;;5025024;28;20283;-72
2023/04/27 10:38:19;;;;;;;32.15;20.15;;;19.90;52.10;;;;;;5007275;28;20196;-72
2023/04/27 10:40:57;;;;;;;32.35;20.60;;;19.90;52.00;;;;;;5021257;28;20208;-70
2023/04/27 10:43:26;;;;;;;35.45;22.52;;;19.90;52.00;;;;;;5004004;28;20572;-72
2023/04/27 10:45:52;;;;;;;28.92;20.60;;;19.90;52.10;;;;;;5002829;28;20188;-71
2023/04/27 10:48:18;;;;;;;31.88;20.80;;;19.90;52.00;;;;;;5012029;28;20184;-72
2023/04/27 10:50:45;;;;;;;37.78;22.92;;;19.90;51.90;;;;;;4997797;28;20192;-72
2023/04/27 10:53:13;;;;;;;31.48;22.33;;;19.90;52.10;;;;;;5015533;28;20196;-71
2023/04/27 10:55:39;;;;;;;35.55;22.67;;;19.90;52.20;;;;;;4983612;28;20193;-72
2023/04/27 10:58:05;;;;;;;35.42;23.35;;;19.90;52.10;;;;;;5000805;28;20199;-71
2023/04/27 11:00:43;;;;;;;32.40;22.02;;;19.90;52.20;;;;;;4999142;28;20212;-71
2023/04/27 11:03:22;;;;;;;34.80;22.13;;;19.90;52.20;;;;;;5006752;28;20188;-71
2023/04/27 11:05:58;;;;;;;36.80;23.83;;;19.90;52.20;;;;;;4995795;28;20184;-71
2023/04/27 11:08:24;;;;;;;33.03;21.45;;;19.90;52.50;;;;;;5002626;28;20184;-71
2023/04/27 11:10:51;;;;;;;32.83;21.75;;;19.90;52.30;;;;;;4997898;28;20263;-71
2023/04/27 11:13:22;;;;;;;33.83;21.05;;;19.90;52.80;;;;;;5007222;28;20192;-71
2023/04/27 11:15:50;;;;;;;28.65;19.73;;;19.90;52.50;;;;;;5010417;28;20188;-71
2023/04/27 11:18:19;;;;;;;30.95;20.48;;;19.90;52.40;;;;;;5005611;28;20189;-70
2023/04/27 11:20:49;;;;;;;31.00;20.63;;;19.90;52.10;;;;;;5022869;28;20696;-70
2023/04/27 11:23:23;;;;;;;33.17;20.80;;;19.90;52.20;;;;;;5007358;28;20190;-71
2023/04/27 11:25:49;;;;;;;30.45;19.73;;;19.90;52.20;;;;;;5010456;28;20192;-71
2023/04/27 11:28:19;;;;;;;29.20;19.30;;;19.90;52.10;;;;;;5010489;28;20216;-71
2023/04/27 11:30:45;;;;;;;30.30;20.60;;;19.90;52.10;;;;;;4995208;28;20566;-71
2023/04/27 11:33:10;;;;;;;31.38;21.02;;;19.90;52.10;;;;;;5004350;28;20637;-71
2023/04/27 11:35:37;;;;;;;32.13;20.27;;;19.90;52.20;;;;;;5002967;28;20271;-72
2023/04/27 11:38:03;;;;;;;26.92;19.15;;;19.90;52.20;;;;;;5002510;28;20185;-72
2023/04/27 11:40:29;;;;;;;30.38;20.25;;;19.90;52.30;;;;;;5016796;28;20246;-74
2023/04/27 11:43:01;;;;;;;23.83;17.05;;;19.90;52.20;;;;;;5005961;28;20183;-72
2023/04/27 11:45:27;;;;;;;28.98;18.40;;;19.90;52.20;;;;;;5014151;28;20192;-72
2023/04/27 11:47:53;;;;;;;25.60;17.27;;;19.90;52.30;;;;;;5025463;28;20217;-72
2023/04/27 11:50:25;;;;;;;24.83;17.17;;;19.90;52.20;;;;;;5004087;28;20287;-72
2023/04/27 11:52:51;;;;;;;23.38;16.13;;;19.90;52.30;;;;;;5043259;28;20666;-72
2023/04/27 11:55:21;;;;;;;24.75;17.92;;;19.90;52.10;;;;;;5017229;28;20344;-72
2023/04/27 11:57:47;;;;;;;26.42;18.25;;;19.90;52.10;;;;;;5022186;28;20222;-72
2023/04/27 12:00:14;;;;;;;26.33;17.27;;;19.90;52.10;;;;;;5022115;28;20273;-72
2023/04/27 12:02:41;;;;;;;23.65;16.02;;;19.90;52.10;;;;;;5004046;28;20196;-72
2023/04/27 12:05:08;;;;;;;25.60;16.77;;;19.90;52.00;;;;;;5001051;28;20192;-72
2023/04/27 12:07:34;;;;;;;24.90;16.23;;;19.90;52.10;;;;;;5019520;28;20212;-71
2023/04/27 12:10:00;;;;;;;24.52;15.27;;;19.90;52.00;;;;;;5008079;28;20197;-72
2023/04/27 12:12:26;;;;;;;22.52;15.13;;;19.90;52.40;;;;;;5013637;28;20218;-71
2023/04/27 12:14:52;;;;;;;25.20;16.35;;;19.90;52.20;;;;;;5028903;28;20180;-72
2023/04/27 12:17:18;;;;;;;22.23;15.00;;;19.90;52.20;;;;;;5014551;28;20307;-71
2023/04/27 12:19:44;;;;;;;21.55;15.07;;;19.90;52.10;;;;;;4987654;28;20243;-71
2023/04/27 12:22:10;;;;;;;20.73;14.40;;;19.90;52.00;;;;;;5017105;28;20192;-72
2023/04/27 12:24:36;;;;;;;20.30;13.52;;;19.90;51.90;;;;;;5030261;28;20279;-71
2023/04/27 12:27:03;;;;;;;17.60;12.75;;;19.90;51.90;;;;;;5021794;28;20291;-71
2023/04/27 12:29:30;;;;;;;17.65;11.77;;;19.90;51.80;;;;;;5013357;28;20190;-71
2023/04/27 12:31:58;;;;;;;21.42;12.80;;;19.90;51.80;;;;;;5006661;28;20206;-71
2023/04/27 12:34:24;;;;;;;17.85;11.40;;;19.90;51.80;;;;;;5012896;28;20331;-71
2023/04/27 12:36:51;;;;;;;16.23;11.35;;;20.00;51.90;;;;;;5010105;28;20251;-71
2023/04/27 12:39:20;;;;;;;16.75;11.13;;;19.90;51.70;;;;;;5009309;28;20351;-72
2023/04/27 12:41:48;;;;;;;16.80;10.43;;;19.90;51.70;;;;;;5005268;28;20229;-72